Klik op de webcam foto voor een grotere versieKlik op de webcam foto voor een grotere versie
Of klik hier voor
de webcam video


Weerstation
Wilsele-Leuven:Website of another weatherstation



Het weer levert geen direct gevaar op.    Er zijn geen waarschuwingen afgegeven.

Nabijgelegen vliegvelden - METAR rapporten

   
EBBR - Vaartkom-Leuven
Gewijzigd: 14-10-2019 10:20
Helder    Wind: Oosten 11 km/h
Helder
Wind: Wind: Oosten 11 km/h
Temperatuur: 15°C
Dauwpunt: 13°C
Vochtigheid: 88%
Barometer: 1011 hPa
Zicht: meer dan 10 km
Bewolking: Helder
EBBR 140820Z 10006KT 070V130 CAVOK 15/13 Q1011 NOSIG
EBAW - Antwerp
Gewijzigd: 14-10-2019 10:20
Gedeeltelijk bewolkt    Wind: Oosten 11 km/h
Gedeeltelijk bewolkt
Wind: Wind: Oosten 11 km/h
Temperatuur: 15°C
Dauwpunt: 13°C
Vochtigheid: 88%
Barometer: 1012 hPa
Bewolking: Gedeeltelijk bewolkt
Zicht: meer dan 10 km
Bewolking: Licht bewolkt 609.6 m,
Gedeeltelijk bewolkt 1371.6 m
EBAW 140820Z 09006KT 060V130 9999 FEW020 SCT045 15/13 Q1012 NOSIG
EBLG - Liège
Gewijzigd: 14-10-2019 10:20
Licht bewolkt    Wind: ZO 13 km/h
Licht bewolkt
Wind: Wind: ZO 13 km/h
Temperatuur: 16°C
Dauwpunt: 13°C
Vochtigheid: 83%
Barometer: 1012 hPa
Bewolking: Licht bewolkt
Zicht: meer dan 10 km
Bewolking: Licht bewolkt 1371.6 m
EBLG 140820Z 13007KT 9999 FEW045 16/13 Q1012 NOSIG
EBCV - Mons/Bergen
Gewijzigd: 14-10-2019 10:25
Grotendeels bewolkt    Wind: Oosten 9 km/h
Grotendeels bewolkt
Wind: Wind: Oosten 9 km/h
Temperatuur: 14°C
Dauwpunt: 13°C
Vochtigheid: 94%
Barometer: 1010 hPa
Bewolking: Grotendeels bewolkt
Zicht: meer dan 10 km
Bewolking: Gedeeltelijk bewolkt 1280.2 m,
Grotendeels bewolkt 2347 m,
Grotendeels bewolkt 2865.1 m
EBCV 140825Z AUTO 08005KT 9999 SCT042/// BKN077/// BKN094/// 14/13 Q1010 BLU
EHBK - Maastricht
Gewijzigd: 14-10-2019 10:25
Gedeeltelijk bewolkt    Wind: Oosten 9 km/h
Gedeeltelijk bewolkt
Wind: Wind: Oosten 9 km/h
Temperatuur: 15°C
Dauwpunt: 13°C
Vochtigheid: 88%
Barometer: 1012 hPa
Bewolking: Gedeeltelijk bewolkt
Zicht: meer dan 10 km
Bewolking: Gedeeltelijk bewolkt
EHBK 140825Z AUTO 10005KT 070V150 9999 NSC 15/13 Q1012 NOSIG
ELLX - Luxemburg
Gewijzigd: 14-10-2019 10:20
Helder    Wind: Zuiden 17 km/h
Helder
Wind: Wind: Zuiden 17 km/h
Temperatuur: 16°C
Dauwpunt: 13°C
Vochtigheid: 83%
Barometer: 1014 hPa
Zicht: meer dan 10 km
Bewolking: Helder
ELLX 140820Z 17009KT 130V200 CAVOK 16/13 Q1014 NOSIG
EBOS - Oostende
Gewijzigd: 14-10-2019 10:20
Grotendeels bewolkt    Wind: ONO 17 km/h
Grotendeels bewolkt
Wind: Wind: ONO 17 km/h
Temperatuur: 13°C
Dauwpunt: 12°C
Vochtigheid: 94%
Barometer: 1010 hPa
Bewolking: Grotendeels bewolkt
Zicht: meer dan 10 km
Bewolking: Licht bewolkt 640.1 m,
Grotendeels bewolkt 1066.8 m
EBOS 140820Z 07009KT 9999 FEW021 BKN035 13/12 Q1010 TEMPO 4000 MODRA BKN012
  

Script ontwikkeld door  Saratoga-weather.org Aangepast voor de template door  Weerstation Leuven

U vindt ons ook hier:

UK Metoffice

WeatherCloud

European Weather Network

Weather Underground

Bernelux Weather Network

AWEKAS

Citizen Weather Observer Program (CWOP)

HAMweather, WeatherForYou, PWS Weather

Apparatuur in gebruik:

Weer-station
Davis VUE

Weer-programma
Meteobridge

Weer-computer
Nano-SD

Webleverancier
Robohost

Davis VUE

Meteobridge

Nano-SD

Robohost